createdAt,value
2023-03-25T00:00:16.914Z,98894.59
2023-03-25T00:01:20.052Z,98905.91
2023-03-25T00:02:23.467Z,98902.81
2023-03-25T00:03:27.056Z,98901.78
2023-03-25T00:04:28.886Z,98895.19
2023-03-25T00:05:31.149Z,98902.22
2023-03-25T00:06:36.424Z,98906.44
2023-03-25T00:07:38.653Z,98905.97
2023-03-25T00:08:40.737Z,98913.25
2023-03-25T00:09:42.972Z,98909.97
2023-03-25T00:10:44.897Z,98907.47
2023-03-25T00:11:46.707Z,98906.06
2023-03-25T00:12:48.465Z,98905.22
2023-03-25T00:13:50.527Z,98891.59
2023-03-25T00:14:55.375Z,98912.72
2023-03-25T00:15:58.312Z,98912.72
2023-03-25T00:17:01.374Z,98914.59
2023-03-25T00:18:03.428Z,98902.81
2023-03-25T00:19:06.553Z,98908.59
2023-03-25T00:20:10.082Z,98916.28
2023-03-25T00:21:11.962Z,98909.44
2023-03-25T00:22:13.805Z,98910.69
2023-03-25T00:23:16.287Z,98908.19
2023-03-25T00:24:18.115Z,98917.34
2023-03-25T00:25:20.824Z,98909.47
2023-03-25T00:26:22.678Z,98911.94
2023-03-25T00:27:24.529Z,98915.69
2023-03-25T00:28:30.887Z,98916.94
2023-03-25T00:29:32.901Z,98915.91
2023-03-25T00:30:34.730Z,98910.59
2023-03-25T00:31:36.621Z,98911.66
2023-03-25T00:32:39.827Z,98914.34
2023-03-25T00:33:44.929Z,98914.16
2023-03-25T00:34:49.764Z,98926.31
2023-03-25T00:35:54.576Z,98918.69
2023-03-25T00:36:56.800Z,98925.13
2023-03-25T00:38:02.811Z,98929.47
2023-03-25T00:39:05.439Z,98925.78
2023-03-25T00:40:08.971Z,98934.25
2023-03-25T00:41:17.589Z,98933.63
2023-03-25T00:42:26.280Z,98930.34
2023-03-25T00:43:28.452Z,98940.47
2023-03-25T00:44:31.279Z,98941.72
2023-03-25T00:45:33.829Z,98944.66
2023-03-25T00:46:35.731Z,98944.25
2023-03-25T00:47:37.679Z,98935.41
2023-03-25T00:48:39.568Z,98942.41
2023-03-25T00:49:41.469Z,98945.31
2023-03-25T00:50:43.354Z,98953.38
2023-03-25T00:51:53.144Z,98945.31
2023-03-25T00:52:55.944Z,98948.84
2023-03-25T00:54:00.455Z,98948.25
2023-03-25T00:55:02.848Z,98919.75
2023-03-25T00:56:05.209Z,98928.50
2023-03-25T00:57:07.066Z,98951.97
2023-03-25T00:58:08.928Z,98946.19
2023-03-25T00:59:11.359Z,98949.50
2023-03-25T01:00:16.144Z,98957.81
2023-03-25T01:01:27.369Z,98956.97
2023-03-25T01:02:31.150Z,98947.69
2023-03-25T01:03:37.291Z,98957.81
2023-03-25T01:04:42.401Z,98956.97
2023-03-25T01:05:45.624Z,98949.19
2023-03-25T01:06:51.797Z,98959.91
2023-03-25T01:07:53.748Z,98959.06
2023-03-25T01:08:57.464Z,98966.56
2023-03-25T01:09:59.838Z,98968.19
2023-03-25T01:11:01.664Z,98968.19
2023-03-25T01:12:03.591Z,98937.91
2023-03-25T01:13:05.487Z,98969.25
2023-03-25T01:14:11.626Z,98974.03
2023-03-25T01:15:13.683Z,98970.28
2023-03-25T01:16:15.645Z,98970.28
2023-03-25T01:17:17.657Z,98962.03
2023-03-25T01:18:19.430Z,98967.84
2023-03-25T01:19:22.108Z,98968.03
2023-03-25T01:20:23.945Z,98969.09
2023-03-25T01:21:26.231Z,98972.59
2023-03-25T01:22:28.138Z,98968.25
2023-03-25T01:23:30.022Z,98974.31
2023-03-25T01:24:32.252Z,98974.69
2023-03-25T01:25:34.047Z,98983.59
2023-03-25T01:26:35.988Z,98987.34
2023-03-25T01:27:40.040Z,98979.47
2023-03-25T01:28:43.712Z,98984.03
2023-03-25T01:29:45.528Z,98979.91
2023-03-25T01:30:47.320Z,98975.34
2023-03-25T01:31:49.690Z,98980.50
2023-03-25T01:32:51.625Z,98988.59
2023-03-25T01:33:53.513Z,98988.59
2023-03-25T01:34:55.333Z,98988.81
2023-03-25T01:35:57.311Z,98979.75
2023-03-25T01:36:59.539Z,98983.28
2023-03-25T01:38:01.336Z,98996.91
2023-03-25T01:39:05.722Z,98992.56
2023-03-25T01:40:10.322Z,99000.66
2023-03-25T01:41:12.174Z,98997.13
2023-03-25T01:42:13.981Z,98999.00
2023-03-25T01:43:15.861Z,99001.69
2023-03-25T01:44:21.084Z,98995.31
2023-03-25T01:45:29.770Z,99009.78
2023-03-25T01:46:31.971Z,99008.94
2023-03-25T01:47:33.960Z,99003.56
2023-03-25T01:48:40.674Z,99014.56
2023-03-25T01:49:46.038Z,99003.19
2023-03-25T01:51:02.391Z,99011.88
2023-03-25T01:52:07.780Z,99003.19
2023-03-25T01:53:11.544Z,99007.09
2023-03-25T01:54:17.993Z,99017.88
2023-03-25T01:55:20.511Z,99011.63
2023-03-25T01:56:33.772Z,99013.50
2023-03-25T01:57:37.279Z,99010.22
2023-03-25T01:58:40.142Z,98998.66
2023-03-25T01:59:42.250Z,99022.66
2023-03-25T02:00:45.893Z,99018.50
2023-03-25T02:01:48.547Z,99014.44
2023-03-25T02:02:52.745Z,99017.69
2023-03-25T02:04:03.213Z,99022.25
2023-03-25T02:05:25.454Z,99010.22
2023-03-25T02:06:39.380Z,99027.34
2023-03-25T02:07:43.055Z,99035.50
2023-03-25T02:08:45.100Z,99036.13
2023-03-25T02:09:47.266Z,99029.09
2023-03-25T02:10:49.891Z,99035.09
2023-03-25T02:11:54.964Z,99033.50
2023-03-25T02:12:57.196Z,99040.72
2023-03-25T02:14:04.638Z,99050.06
2023-03-25T02:15:08.637Z,99047.16
2023-03-25T02:16:46.682Z,99045.25
2023-03-25T02:18:07.299Z,99056.63
2023-03-25T02:19:15.556Z,99064.09
2023-03-25T02:20:35.862Z,99067.22
2023-03-25T02:22:20.988Z,99052.88
2023-03-25T02:23:58.196Z,99070.91
2023-03-25T02:25:35.295Z,99052.47
2023-03-25T02:26:57.462Z,99071.13
2023-03-25T02:28:18.016Z,99076.97
2023-03-25T02:29:29.117Z,99078.22
2023-03-25T02:30:58.341Z,99081.75
2023-03-25T02:32:12.197Z,99081.13
2023-03-25T02:33:32.413Z,99079.88
2023-03-25T02:35:01.993Z,99076.19
2023-03-25T02:36:25.705Z,99090.66
2023-03-25T02:38:13.384Z,99085.69
2023-03-25T02:39:23.412Z,99092.72
2023-03-25T02:40:38.860Z,99095.06
2023-03-25T02:41:57.431Z,99090.28
2023-03-25T02:43:37.902Z,99087.44
2023-03-25T02:44:49.187Z,99093.41
2023-03-25T02:45:56.210Z,99107.69
2023-03-25T02:47:03.226Z,99099.22
2023-03-25T02:48:16.037Z,99108.56
2023-03-25T02:49:25.819Z,99104.81
2023-03-25T02:50:33.872Z,99106.91
2023-03-25T02:51:53.262Z,99106.91
2023-03-25T02:53:00.731Z,99113.94
2023-03-25T02:54:07.443Z,99112.28
2023-03-25T02:55:12.474Z,99104.22
2023-03-25T02:56:18.453Z,99108.78
2023-03-25T02:57:23.073Z,99113.75
2023-03-25T02:58:25.602Z,99111.06
2023-03-25T02:59:33.356Z,99115.81
2023-03-25T03:00:38.327Z,99118.31
2023-03-25T03:01:41.371Z,99113.56
2023-03-25T03:02:50.846Z,99121.00
2023-03-25T03:03:56.647Z,99122.69
2023-03-25T03:04:59.120Z,99121.00
2023-03-25T03:06:03.492Z,99115.63
2023-03-25T03:07:05.899Z,99125.97
2023-03-25T03:08:34.902Z,99126.38
2023-03-25T03:09:45.581Z,99133.03
2023-03-25T03:10:55.056Z,99128.44
2023-03-25T03:12:15.984Z,99137.13
2023-03-25T03:13:25.693Z,99131.75
2023-03-25T03:14:33.275Z,99139.22
2023-03-25T03:15:53.085Z,99133.47
2023-03-25T03:17:08.535Z,99136.09
2023-03-25T03:18:19.760Z,99146.25
2023-03-25T03:19:24.489Z,99142.97
2023-03-25T03:20:39.774Z,99141.31
2023-03-25T03:21:57.291Z,99146.50
2023-03-25T03:23:24.249Z,99154.16
2023-03-25T03:24:32.607Z,99153.31
2023-03-25T03:25:43.478Z,99154.34
2023-03-25T03:26:59.987Z,99157.03
2023-03-25T03:28:11.346Z,99152.69
2023-03-25T03:29:39.007Z,99157.44
2023-03-25T03:30:54.453Z,99149.19
2023-03-25T03:32:06.482Z,99157.03
2023-03-25T03:33:26.691Z,99164.50
2023-03-25T03:34:34.761Z,99169.69
2023-03-25T03:35:50.660Z,99160.78
2023-03-25T03:36:57.291Z,99177.34
2023-03-25T03:38:09.481Z,99176.72
2023-03-25T03:39:16.992Z,99172.38
2023-03-25T03:40:22.752Z,99176.09
2023-03-25T03:41:27.250Z,99172.78
2023-03-25T03:42:39.927Z,99170.91
2023-03-25T03:44:03.428Z,99171.97
2023-03-25T03:45:13.790Z,99184.78
2023-03-25T03:46:27.561Z,99166.56
2023-03-25T03:47:36.976Z,99168.22
2023-03-25T03:48:44.298Z,99186.88
2023-03-25T03:49:52.561Z,99174.25
2023-03-25T03:51:00.683Z,99177.97
2023-03-25T03:52:26.767Z,99182.75
2023-03-25T03:53:47.754Z,99175.69
2023-03-25T03:54:55.146Z,99196.41
2023-03-25T03:56:13.124Z,99183.56
2023-03-25T03:57:24.466Z,99196.59
2023-03-25T03:58:31.063Z,99190.59
2023-03-25T03:59:49.075Z,99182.75
2023-03-25T04:01:05.270Z,99193.09
2023-03-25T04:02:17.384Z,99183.38
2023-03-25T04:03:28.492Z,99191.66
2023-03-25T04:04:31.729Z,99199.72
2023-03-25T04:05:38.359Z,99192.25
2023-03-25T04:06:46.711Z,99199.31
2023-03-25T04:07:57.140Z,99190.63
2023-03-25T04:09:09.489Z,99188.56
2023-03-25T04:10:29.814Z,99199.72
2023-03-25T04:11:40.299Z,99193.53
2023-03-25T04:12:50.396Z,99203.44
2023-03-25T04:13:57.728Z,99205.53
2023-03-25T04:15:04.422Z,99210.06
2023-03-25T04:16:07.378Z,99197.69
2023-03-25T04:17:09.311Z,99216.72
2023-03-25T04:18:12.193Z,99211.53
2023-03-25T04:19:18.508Z,99208.03
2023-03-25T04:20:24.896Z,99211.78
2023-03-25T04:21:30.046Z,99202.84
2023-03-25T04:22:31.907Z,99199.97
2023-03-25T04:23:34.875Z,99204.50
2023-03-25T04:24:37.861Z,99207.19
2023-03-25T04:25:39.675Z,99201.19
2023-03-25T04:26:42.381Z,99204.72
2023-03-25T04:27:48.812Z,99210.13
2023-03-25T04:28:50.945Z,99220.66
2023-03-25T04:29:52.730Z,99215.50
2023-03-25T04:30:55.804Z,99215.50
2023-03-25T04:31:58.624Z,99214.88
2023-03-25T04:33:00.777Z,99210.53
2023-03-25T04:34:02.792Z,99197.31
2023-03-25T04:35:04.906Z,99222.97
2023-03-25T04:36:07.178Z,99220.28
2023-03-25T04:37:09.118Z,99215.94
2023-03-25T04:38:11.978Z,99217.56
2023-03-25T04:39:13.845Z,99221.31
2023-03-25T04:40:18.846Z,99214.69
2023-03-25T04:41:20.804Z,99213.03
2023-03-25T04:42:25.825Z,99232.06
2023-03-25T04:43:28.463Z,99215.50
2023-03-25T04:44:33.791Z,99219.66
2023-03-25T04:45:36.499Z,99202.28
2023-03-25T04:46:38.567Z,99225.03
2023-03-25T04:47:47.238Z,99218.19
2023-03-25T04:48:49.304Z,99227.94
2023-03-25T04:49:51.233Z,99232.69
2023-03-25T04:50:54.916Z,99224.63
2023-03-25T04:51:57.079Z,99238.31
2023-03-25T04:53:00.476Z,99234.78
2023-03-25T04:54:02.252Z,99242.03
2023-03-25T04:55:05.298Z,99241.81
2023-03-25T04:56:13.186Z,99242.22
2023-03-25T04:57:15.413Z,99245.13
2023-03-25T04:58:18.061Z,99246.16
2023-03-25T04:59:24.416Z,99245.34
2023-03-25T05:00:27.417Z,99249.88
2023-03-25T05:01:33.053Z,99243.88
2023-03-25T05:02:34.992Z,99251.34
2023-03-25T05:03:40.084Z,99252.38
2023-03-25T05:04:43.062Z,99259.00
2023-03-25T05:05:44.899Z,99261.91
2023-03-25T05:06:50.647Z,99253.22
2023-03-25T05:07:54.625Z,99264.81
2023-03-25T05:08:56.441Z,99272.88
2023-03-25T05:09:58.245Z,99270.19
2023-03-25T05:11:00.122Z,99272.25
2023-03-25T05:12:01.953Z,99266.06
2023-03-25T05:13:06.602Z,99276.81
2023-03-25T05:14:09.832Z,99269.38
2023-03-25T05:15:12.792Z,99276.00
2023-03-25T05:16:14.672Z,99280.34
2023-03-25T05:17:16.578Z,99277.44
2023-03-25T05:18:18.405Z,99270.59
2023-03-25T05:19:20.963Z,99276.81
2023-03-25T05:20:22.839Z,99277.88
2023-03-25T05:21:24.730Z,99271.63
2023-03-25T05:22:26.883Z,99279.72
2023-03-25T05:23:28.828Z,99273.28
2023-03-25T05:24:30.707Z,99264.41
2023-03-25T05:25:34.484Z,99279.72
2023-03-25T05:26:37.948Z,99279.53
2023-03-25T05:27:39.917Z,99266.69
2023-03-25T05:28:42.497Z,99276.81
2023-03-25T05:29:44.676Z,99281.19
2023-03-25T05:30:47.669Z,99283.03
2023-03-25T05:31:49.518Z,99284.69
2023-03-25T05:32:56.442Z,99284.69
2023-03-25T05:33:58.954Z,99286.34
2023-03-25T05:35:01.949Z,99289.03
2023-03-25T05:36:04.841Z,99290.91
2023-03-25T05:37:06.810Z,99297.09
2023-03-25T05:38:12.489Z,99286.56
2023-03-25T05:39:14.424Z,99299.59
2023-03-25T05:40:16.338Z,99298.75
2023-03-25T05:41:18.236Z,99298.75
2023-03-25T05:42:23.059Z,99303.53
2023-03-25T05:43:25.105Z,99287.16
2023-03-25T05:44:26.873Z,99304.13
2023-03-25T05:45:28.993Z,99297.09
2023-03-25T05:46:31.073Z,99296.28
2023-03-25T05:47:33.023Z,99293.38
2023-03-25T05:48:35.713Z,99303.31
2023-03-25T05:49:37.469Z,99304.13
2023-03-25T05:50:42.923Z,99297.09
2023-03-25T05:51:45.252Z,99302.72
2023-03-25T05:52:49.667Z,99306.84
2023-03-25T05:53:51.654Z,99311.19
2023-03-25T05:54:53.413Z,99307.44
2023-03-25T05:55:55.331Z,99307.69
2023-03-25T05:56:57.225Z,99308.28
2023-03-25T05:57:59.074Z,99317.59
2023-03-25T05:59:01.076Z,99314.91
2023-03-25T06:00:08.432Z,99303.75
2023-03-25T06:01:21.857Z,99315.53
2023-03-25T06:02:35.799Z,99320.28
2023-03-25T06:03:38.659Z,99320.50
2023-03-25T06:04:43.850Z,99307.88
2023-03-25T06:05:45.678Z,99327.94
2023-03-25T06:06:47.830Z,99322.78
2023-03-25T06:07:50.705Z,99310.78
2023-03-25T06:08:52.977Z,99319.47
2023-03-25T06:09:56.083Z,99320.28
2023-03-25T06:11:01.325Z,99318.44
2023-03-25T06:12:04.260Z,99329.41
2023-03-25T06:13:06.097Z,99333.75
2023-03-25T06:14:08.195Z,99331.06
2023-03-25T06:15:11.840Z,99336.66
2023-03-25T06:16:13.708Z,99338.09
2023-03-25T06:17:19.113Z,99341.19
2023-03-25T06:18:24.635Z,99343.69
2023-03-25T06:19:26.787Z,99342.03
2023-03-25T06:20:28.612Z,99347.22
2023-03-25T06:21:34.527Z,99348.25
2023-03-25T06:22:43.022Z,99343.69
2023-03-25T06:23:44.880Z,99348.06
2023-03-25T06:24:48.689Z,99351.56
2023-03-25T06:25:54.866Z,99347.22
2023-03-25T06:26:56.661Z,99359.63
2023-03-25T06:28:03.140Z,99359.63
2023-03-25T06:29:05.221Z,99352.59
2023-03-25T06:30:13.549Z,99362.53
2023-03-25T06:31:22.693Z,99347.84
2023-03-25T06:32:26.061Z,99359.63
2023-03-25T06:33:42.797Z,99343.50
2023-03-25T06:34:45.905Z,99359.22
2023-03-25T06:35:54.710Z,99347.84
2023-03-25T06:36:56.571Z,99353.00
2023-03-25T06:37:58.354Z,99346.38
2023-03-25T06:39:26.576Z,99357.56
2023-03-25T06:40:30.745Z,99357.38
2023-03-25T06:41:36.235Z,99358.59
2023-03-25T06:42:49.627Z,99362.94
2023-03-25T06:44:12.093Z,99362.75
2023-03-25T06:45:33.995Z,99361.72
2023-03-25T06:46:43.400Z,99358.19
2023-03-25T06:48:11.440Z,99372.91
2023-03-25T06:49:13.216Z,99364.59
2023-03-25T06:50:15.186Z,99366.66
2023-03-25T06:51:16.938Z,99376.00
2023-03-25T06:52:18.813Z,99374.34
2023-03-25T06:53:20.934Z,99372.69
2023-03-25T06:54:22.942Z,99372.88
2023-03-25T06:55:24.940Z,99376.59
2023-03-25T06:56:26.880Z,99380.97
2023-03-25T06:57:28.747Z,99378.25
2023-03-25T06:58:35.207Z,99377.44
2023-03-25T06:59:37.410Z,99377.03
2023-03-25T07:00:39.253Z,99380.75
2023-03-25T07:01:41.426Z,99383.66
2023-03-25T07:02:43.248Z,99382.00
2023-03-25T07:03:45.142Z,99377.66
2023-03-25T07:04:46.969Z,99376.59
2023-03-25T07:05:49.734Z,99371.22
2023-03-25T07:06:52.284Z,99379.91
2023-03-25T07:07:54.235Z,99375.56
2023-03-25T07:08:56.068Z,99373.72
2023-03-25T07:09:57.942Z,99377.03
2023-03-25T07:11:05.122Z,99368.94
2023-03-25T07:12:09.121Z,99382.81
2023-03-25T07:13:11.465Z,99380.56
2023-03-25T07:14:13.398Z,99385.72
2023-03-25T07:15:15.489Z,99395.88
2023-03-25T07:16:21.244Z,99384.50
2023-03-25T07:17:23.991Z,99385.31
2023-03-25T07:18:26.225Z,99387.41
2023-03-25T07:19:28.099Z,99393.19
2023-03-25T07:20:30.949Z,99390.06
2023-03-25T07:21:32.840Z,99393.00
2023-03-25T07:22:34.678Z,99393.41
2023-03-25T07:23:36.584Z,99390.31
2023-03-25T07:24:38.412Z,99390.75
2023-03-25T07:25:40.562Z,99399.00
2023-03-25T07:26:42.357Z,99393.22
2023-03-25T07:27:45.976Z,99396.31
2023-03-25T07:28:52.008Z,99401.69
2023-03-25T07:29:53.947Z,99404.81
2023-03-25T07:30:55.812Z,99400.41
2023-03-25T07:31:57.837Z,99410.59
2023-03-25T07:32:59.739Z,99401.03
2023-03-25T07:34:02.918Z,99403.31
2023-03-25T07:35:05.799Z,99401.84
2023-03-25T07:36:10.827Z,99408.47
2023-03-25T07:37:12.776Z,99407.66
2023-03-25T07:38:14.550Z,99402.88
2023-03-25T07:39:16.354Z,99399.75
2023-03-25T07:40:18.608Z,99407.19
2023-03-25T07:41:20.473Z,99408.84
2023-03-25T07:42:45.356Z,99414.03
2023-03-25T07:43:51.496Z,99423.38
2023-03-25T07:45:01.116Z,99426.44
2023-03-25T07:46:04.833Z,99415.06
2023-03-25T07:47:06.701Z,99398.28
2023-03-25T07:48:13.701Z,99426.63
2023-03-25T07:49:17.000Z,99420.63
2023-03-25T07:50:22.556Z,99440.31
2023-03-25T07:51:26.469Z,99438.22
2023-03-25T07:52:28.247Z,99437.84
2023-03-25T07:53:30.085Z,99424.13
2023-03-25T07:54:31.987Z,99437.19
2023-03-25T07:55:33.986Z,99439.06
2023-03-25T07:56:35.987Z,99447.75
2023-03-25T07:57:37.831Z,99441.31
2023-03-25T07:58:39.811Z,99442.97
2023-03-25T07:59:41.594Z,99443.78
2023-03-25T08:00:43.544Z,99438.19
2023-03-25T08:01:45.743Z,99441.31
2023-03-25T08:02:47.757Z,99453.97
2023-03-25T08:03:49.962Z,99450.22
2023-03-25T08:04:54.532Z,99437.59
2023-03-25T08:05:56.365Z,99456.84
2023-03-25T08:06:58.175Z,99442.75
2023-03-25T08:08:01.002Z,99461.19
2023-03-25T08:09:02.874Z,99458.50
2023-03-25T08:10:04.997Z,99452.31
2023-03-25T08:11:07.413Z,99464.50
2023-03-25T08:12:09.783Z,99469.28
2023-03-25T08:13:12.215Z,99464.31
2023-03-25T08:14:14.168Z,99469.47
2023-03-25T08:15:17.917Z,99469.47
2023-03-25T08:16:19.814Z,99471.13
2023-03-25T08:17:21.692Z,99461.97
2023-03-25T08:18:24.700Z,99471.13
2023-03-25T08:19:26.721Z,99477.13
2023-03-25T08:20:28.942Z,99478.78
2023-03-25T08:21:30.808Z,99466.56
2023-03-25T08:22:33.357Z,99477.13
2023-03-25T08:23:37.118Z,99485.84
2023-03-25T08:24:39.012Z,99483.16
2023-03-25T08:25:43.939Z,99484.00
2023-03-25T08:26:45.729Z,99477.75
2023-03-25T08:27:47.564Z,99488.53
2023-03-25T08:28:49.480Z,99484.19
2023-03-25T08:29:57.302Z,99485.84
2023-03-25T08:31:02.415Z,99481.28
2023-03-25T08:32:04.342Z,99486.69
2023-03-25T08:33:07.546Z,99481.09
2023-03-25T08:34:09.396Z,99490.44
2023-03-25T08:35:11.166Z,99495.81
2023-03-25T08:36:14.515Z,99494.97
2023-03-25T08:37:16.593Z,99494.16
2023-03-25T08:38:18.523Z,99494.97
2023-03-25T08:39:22.112Z,99486.69
2023-03-25T08:40:23.945Z,99494.97
2023-03-25T08:41:26.121Z,99500.38
2023-03-25T08:42:27.886Z,99501.22
2023-03-25T08:43:29.711Z,99493.13
2023-03-25T08:44:31.491Z,99500.38
2023-03-25T08:45:35.006Z,99503.06
2023-03-25T08:46:37.375Z,99490.84
2023-03-25T08:47:39.805Z,99498.53
2023-03-25T08:48:43.953Z,99506.63
2023-03-25T08:49:45.994Z,99497.47
2023-03-25T08:50:47.762Z,99509.31
2023-03-25T08:51:49.551Z,99510.38
2023-03-25T08:52:53.672Z,99508.47
2023-03-25T08:53:55.707Z,99500.38
2023-03-25T08:54:57.606Z,99495.03
2023-03-25T08:55:59.557Z,99510.78
2023-03-25T08:57:01.725Z,99504.13
2023-03-25T08:58:06.235Z,99522.41
2023-03-25T08:59:08.259Z,99515.97
2023-03-25T09:00:14.108Z,99519.69
2023-03-25T09:01:16.018Z,99530.28
2023-03-25T09:02:18.082Z,99527.78
2023-03-25T09:03:23.954Z,99524.47
2023-03-25T09:04:25.928Z,99523.03
2023-03-25T09:05:27.882Z,99531.78
2023-03-25T09:06:29.749Z,99533.81
2023-03-25T09:07:50.032Z,99537.56
2023-03-25T09:08:52.394Z,99535.88
2023-03-25T09:09:54.274Z,99544.41
2023-03-25T09:10:56.487Z,99544.63
2023-03-25T09:11:58.274Z,99543.59
2023-03-25T09:13:00.192Z,99546.06
2023-03-25T09:14:05.086Z,99540.25
2023-03-25T09:15:07.901Z,99545.25
2023-03-25T09:16:10.183Z,99542.34
2023-03-25T09:17:11.992Z,99546.06
2023-03-25T09:18:14.105Z,99528.47
2023-03-25T09:19:16.092Z,99546.91
2023-03-25T09:20:18.788Z,99541.09
2023-03-25T09:21:21.007Z,99549.38
2023-03-25T09:22:23.101Z,99555.63
2023-03-25T09:23:24.929Z,99554.59
2023-03-25T09:24:27.155Z,99556.25
2023-03-25T09:25:28.920Z,99556.25
2023-03-25T09:26:30.726Z,99555.41
2023-03-25T09:27:33.085Z,99565.16
2023-03-25T09:28:35.105Z,99555.19
2023-03-25T09:29:36.941Z,99566.81
2023-03-25T09:30:38.769Z,99563.06
2023-03-25T09:31:40.989Z,99561.41
2023-03-25T09:32:42.972Z,99562.47
2023-03-25T09:33:44.850Z,99558.50
2023-03-25T09:34:46.771Z,99572.81
2023-03-25T09:35:50.202Z,99562.03
2023-03-25T09:36:52.167Z,99568.03
2023-03-25T09:37:53.963Z,99561.41
2023-03-25T09:38:56.048Z,99563.06
2023-03-25T09:39:57.916Z,99566.38
2023-03-25T09:41:05.332Z,99568.88
2023-03-25T09:42:25.422Z,99574.66
2023-03-25T09:43:45.358Z,99567.00
2023-03-25T09:44:50.021Z,99572.19
2023-03-25T09:45:53.516Z,99566.78
2023-03-25T09:46:58.865Z,99565.94
2023-03-25T09:48:17.252Z,99568.84
2023-03-25T09:49:25.854Z,99571.19
2023-03-25T09:50:30.510Z,99572.59
2023-03-25T09:51:37.519Z,99563.50
2023-03-25T09:52:51.536Z,99578.22
2023-03-25T09:54:02.465Z,99578.84
2023-03-25T09:55:11.381Z,99581.53
2023-03-25T09:56:20.335Z,99579.66
2023-03-25T09:57:27.544Z,99560.16
2023-03-25T09:58:42.033Z,99572.38
2023-03-25T09:59:50.196Z,99581.31
2023-03-25T10:01:00.485Z,99578.84
2023-03-25T10:02:43.833Z,99588.38
2023-03-25T10:04:16.123Z,99586.28
2023-03-25T10:05:26.791Z,99597.88
2023-03-25T10:06:32.839Z,99594.81
2023-03-25T10:08:06.143Z,99593.34
2023-03-25T10:09:10.170Z,99593.53
2023-03-25T10:10:23.896Z,99599.78
2023-03-25T10:11:42.711Z,99592.53
2023-03-25T10:12:58.781Z,99600.22
2023-03-25T10:14:11.485Z,99599.59
2023-03-25T10:15:35.401Z,99596.22
2023-03-25T10:16:49.074Z,99601.88
2023-03-25T10:18:20.043Z,99598.56
2023-03-25T10:19:34.041Z,99597.88
2023-03-25T10:20:44.184Z,99599.16
2023-03-25T10:22:09.418Z,99593.78
2023-03-25T10:23:23.347Z,99601.88
2023-03-25T10:24:40.308Z,99596.66
2023-03-25T10:25:46.842Z,99605.81
2023-03-25T10:26:57.695Z,99598.13
2023-03-25T10:28:01.241Z,99596.28
2023-03-25T10:29:19.661Z,99600.84
2023-03-25T10:30:38.760Z,99599.59
2023-03-25T10:31:50.363Z,99605.00
2023-03-25T10:32:57.271Z,99605.81
2023-03-25T10:34:05.852Z,99592.09
2023-03-25T10:35:18.362Z,99603.75
2023-03-25T10:36:34.042Z,99610.81
2023-03-25T10:37:42.162Z,99607.06
2023-03-25T10:38:45.292Z,99609.78
2023-03-25T10:39:47.824Z,99618.06
2023-03-25T10:40:53.123Z,99613.94
2023-03-25T10:42:00.351Z,99616.03
2023-03-25T10:43:23.809Z,99621.63
2023-03-25T10:44:29.049Z,99619.13
2023-03-25T10:45:31.686Z,99622.84
2023-03-25T10:46:48.309Z,99624.94
2023-03-25T10:47:54.237Z,99610.19
2023-03-25T10:48:56.479Z,99606.88
2023-03-25T10:49:59.527Z,99627.03
2023-03-25T10:51:13.821Z,99626.19
2023-03-25T10:52:16.682Z,99627.88
2023-03-25T10:53:25.113Z,99629.88
2023-03-25T10:54:34.155Z,99615.78
2023-03-25T10:55:37.468Z,99632.59
2023-03-25T10:56:51.578Z,99629.88
2023-03-25T10:57:54.665Z,99624.50
2023-03-25T10:58:58.214Z,99637.19
2023-03-25T11:00:18.332Z,99631.16
2023-03-25T11:01:28.277Z,99630.75
2023-03-25T11:02:32.382Z,99630.75
2023-03-25T11:03:35.457Z,99631.78
2023-03-25T11:04:41.194Z,99629.28
2023-03-25T11:05:44.010Z,99626.56
2023-03-25T11:06:52.702Z,99625.16
2023-03-25T11:08:08.848Z,99630.31
2023-03-25T11:09:19.380Z,99630.75
2023-03-25T11:10:25.312Z,99625.34
2023-03-25T11:11:36.746Z,99633.63
2023-03-25T11:12:43.249Z,99627.19
2023-03-25T11:13:45.929Z,99630.94
2023-03-25T11:14:56.626Z,99620.97
2023-03-25T11:16:02.117Z,99643.63
2023-03-25T11:17:11.604Z,99635.72
2023-03-25T11:18:40.676Z,99633.88
2023-03-25T11:19:58.074Z,99639.47
2023-03-25T11:21:12.652Z,99633.28
2023-03-25T11:22:22.261Z,99634.09
2023-03-25T11:23:33.021Z,99639.47
2023-03-25T11:24:42.231Z,99644.06
2023-03-25T11:25:44.179Z,99636.75
2023-03-25T11:26:49.128Z,99638.00
2023-03-25T11:27:59.402Z,99603.38
2023-03-25T11:29:05.764Z,99640.91
2023-03-25T11:30:16.565Z,99645.06
2023-03-25T11:31:21.520Z,99642.38
2023-03-25T11:32:35.215Z,99647.78
2023-03-25T11:33:38.554Z,99645.28
2023-03-25T11:34:43.819Z,99637.78
2023-03-25T11:35:49.184Z,99646.09
2023-03-25T11:37:04.601Z,99647.13
2023-03-25T11:38:24.112Z,99644.69
2023-03-25T11:39:35.917Z,99656.53
2023-03-25T11:40:37.714Z,99645.72
2023-03-25T11:41:39.625Z,99654.03
2023-03-25T11:42:43.814Z,99653.38
2023-03-25T11:43:49.263Z,99657.13
2023-03-25T11:44:56.811Z,99655.22
2023-03-25T11:46:07.846Z,99644.84
2023-03-25T11:47:12.019Z,99657.75
2023-03-25T11:48:22.858Z,99650.69
2023-03-25T11:49:26.404Z,99657.75
2023-03-25T11:50:30.032Z,99650.06
2023-03-25T11:51:33.802Z,99657.94
2023-03-25T11:52:43.579Z,99659.81
2023-03-25T11:53:55.847Z,99666.88
2023-03-25T11:54:57.960Z,99665.66
2023-03-25T11:56:04.924Z,99673.09
2023-03-25T11:57:14.312Z,99654.84
2023-03-25T11:58:19.048Z,99668.56
2023-03-25T11:59:25.932Z,99666.88
2023-03-25T12:00:32.696Z,99660.63
2023-03-25T12:01:44.402Z,99655.66
2023-03-25T12:02:46.294Z,99663.97
2023-03-25T12:03:48.362Z,99666.03
2023-03-25T12:05:12.535Z,99649.44
2023-03-25T12:06:22.649Z,99665.66
2023-03-25T12:07:24.598Z,99657.31
2023-03-25T12:08:30.902Z,99668.72
2023-03-25T12:09:33.029Z,99667.69
2023-03-25T12:10:40.037Z,99657.13
2023-03-25T12:11:47.643Z,99666.03
2023-03-25T12:13:06.926Z,99659.38
2023-03-25T12:14:34.305Z,99654.03
2023-03-25T12:15:46.659Z,99666.06
2023-03-25T12:17:04.812Z,99659.84
2023-03-25T12:18:16.199Z,99666.06
2023-03-25T12:19:20.876Z,99659.00
2023-03-25T12:20:28.425Z,99652.16
2023-03-25T12:21:50.245Z,99653.19
2023-03-25T12:23:21.713Z,99659.41
2023-03-25T12:24:48.290Z,99658.56
2023-03-25T12:26:13.211Z,99656.72
2023-03-25T12:27:33.704Z,99659.41
2023-03-25T12:28:57.160Z,99661.06
2023-03-25T12:30:13.501Z,99654.03
2023-03-25T12:31:39.712Z,99656.91
2023-03-25T12:33:13.744Z,99650.69
2023-03-25T12:34:41.724Z,99660.66
2023-03-25T12:36:06.875Z,99656.91
2023-03-25T12:37:19.513Z,99657.75
2023-03-25T12:38:40.355Z,99657.75
2023-03-25T12:40:06.749Z,99659.00
2023-03-25T12:41:08.720Z,99658.19
2023-03-25T12:42:26.797Z,99667.69
2023-03-25T12:43:56.104Z,99658.56
2023-03-25T12:45:30.125Z,99652.16
2023-03-25T12:46:35.022Z,99657.75
2023-03-25T12:47:49.720Z,99662.28
2023-03-25T12:49:00.433Z,99664.38
2023-03-25T12:50:02.157Z,99659.81
2023-03-25T12:51:22.158Z,99658.34
2023-03-25T12:52:42.204Z,99644.88
2023-03-25T12:53:46.231Z,99658.97
2023-03-25T12:54:50.802Z,99658.56
2023-03-25T12:56:11.959Z,99664.16
2023-03-25T12:57:22.622Z,99666.44
2023-03-25T12:58:49.123Z,99661.03
2023-03-25T13:00:09.240Z,99664.38
2023-03-25T13:01:29.209Z,99668.72
2023-03-25T13:03:02.764Z,99667.53
2023-03-25T13:04:29.297Z,99672.72
2023-03-25T13:05:36.784Z,99666.03
2023-03-25T13:07:10.864Z,99671.25
2023-03-25T13:08:24.436Z,99673.09